Time;durP1;ratioP1;P1;durP2;ratioP2;P2;SDS_P1;SDS_P2;PMS_P1;PMS_P2;Temp;Humidity;BMP_temperature;BMP_pressure;BME280_temperature;BME280_humidity;BME280_pressure;Samples;Min_cycle;Max_cycle;Signal;HPM_P1;HPM_P2
2023/03/16 00:01:10;;;;;;;2.23;1.40;;;16.60;54.70;;;;;;5091654;28;20694;-46
2023/03/16 00:04:04;;;;;;;2.67;1.20;;;16.60;54.70;;;;;;5091848;28;20634;-46
2023/03/16 00:06:39;;;;;;;2.10;1.40;;;16.50;54.60;;;;;;5099225;28;20199;-46
2023/03/16 00:09:08;;;;;;;1.93;1.13;;;16.60;54.70;;;;;;5110765;28;20630;-46
2023/03/16 00:11:41;;;;;;;1.47;1.10;;;16.50;54.70;;;;;;5108911;28;20196;-46
2023/03/16 00:14:11;;;;;;;1.40;1.20;;;16.60;54.80;;;;;;5111570;28;20760;-46
2023/03/16 00:16:55;;;;;;;2.13;1.20;;;16.50;54.70;;;;;;5092930;28;20247;-46
2023/03/16 00:19:26;;;;;;;2.23;1.50;;;16.50;54.80;;;;;;5108425;28;20247;-47
2023/03/16 00:22:02;;;;;;;2.73;1.10;;;16.50;54.80;;;;;;5098866;28;20188;-46
2023/03/16 00:24:34;;;;;;;2.50;1.37;;;16.50;55.40;;;;;;5110777;28;20193;-46
2023/03/16 00:27:05;;;;;;;2.27;1.57;;;16.50;54.80;;;;;;5111538;28;20184;-46
2023/03/16 00:29:36;;;;;;;1.43;1.20;;;16.50;54.80;;;;;;5106837;28;20611;-46
2023/03/16 00:32:06;;;;;;;2.27;1.60;;;16.50;54.90;;;;;;5105290;28;20212;-46
2023/03/16 00:34:37;;;;;;;1.87;1.23;;;16.50;54.80;;;;;;5104486;28;20606;-46
2023/03/16 00:37:09;;;;;;;1.77;1.43;;;16.50;54.80;;;;;;5111640;28;20206;-46
2023/03/16 00:39:41;;;;;;;1.97;1.33;;;16.50;54.90;;;;;;5105536;28;20225;-46
2023/03/16 00:42:11;;;;;;;2.13;1.33;;;16.50;54.90;;;;;;5079951;28;20406;-46
2023/03/16 00:44:45;;;;;;;2.40;1.47;;;16.50;54.90;;;;;;5065612;28;20536;-46
2023/03/16 00:47:15;;;;;;;2.10;1.50;;;16.50;54.90;;;;;;5105611;28;20211;-46
2023/03/16 00:49:46;;;;;;;5.37;1.50;;;16.50;54.90;;;;;;5108679;28;20181;-46
2023/03/16 00:52:15;;;;;;;2.17;1.30;;;16.40;54.90;;;;;;5104781;28;20220;-46
2023/03/16 00:54:52;;;;;;;2.53;1.43;;;16.50;55.00;;;;;;5093443;28;20199;-46
2023/03/16 00:57:23;;;;;;;1.90;1.13;;;16.50;55.00;;;;;;5091993;28;20210;-46
2023/03/16 00:59:53;;;;;;;2.03;1.30;;;16.40;54.90;;;;;;5079685;28;20212;-46
2023/03/16 01:02:25;;;;;;;1.20;0.93;;;16.40;55.00;;;;;;5109850;28;20181;-46
2023/03/16 01:04:57;;;;;;;3.43;1.27;;;16.40;54.90;;;;;;5091259;28;20224;-46
2023/03/16 01:07:28;;;;;;;2.77;1.40;;;16.40;54.90;;;;;;5096820;28;20547;-46
2023/03/16 01:09:59;;;;;;;1.03;0.90;;;16.40;54.90;;;;;;5110413;28;20206;-46
2023/03/16 01:12:30;;;;;;;1.23;1.10;;;16.40;55.00;;;;;;5106847;28;20619;-46
2023/03/16 01:15:00;;;;;;;2.30;1.40;;;16.40;54.90;;;;;;5110323;28;20626;-46
2023/03/16 01:17:34;;;;;;;1.90;1.57;;;16.40;54.90;;;;;;5075346;28;20681;-46
2023/03/16 01:20:10;;;;;;;1.37;1.20;;;16.40;54.80;;;;;;5109543;28;20561;-46
2023/03/16 01:22:48;;;;;;;4.17;1.60;;;16.40;54.90;;;;;;5108663;28;20189;-46
2023/03/16 01:25:20;;;;;;;2.83;1.27;;;16.40;54.80;;;;;;5096348;28;20196;-46
2023/03/16 01:27:49;;;;;;;1.43;1.33;;;16.40;54.80;;;;;;5089559;28;20185;-46
2023/03/16 01:30:20;;;;;;;2.33;1.40;;;16.40;54.80;;;;;;5102775;28;20223;-46
2023/03/16 01:32:53;;;;;;;1.93;1.50;;;16.40;54.70;;;;;;5102472;28;20215;-46
2023/03/16 01:35:24;;;;;;;1.93;1.73;;;16.40;54.70;;;;;;5109022;28;20204;-46
2023/03/16 01:37:54;;;;;;;1.70;1.40;;;16.30;54.60;;;;;;5109316;28;20211;-46
2023/03/16 01:40:22;;;;;;;1.77;1.40;;;16.40;54.70;;;;;;5094892;28;20236;-46
2023/03/16 01:43:00;;;;;;;1.60;1.30;;;16.40;54.80;;;;;;5105474;28;20192;-46
2023/03/16 01:46:06;;;;;;;2.20;1.60;;;16.40;54.70;;;;;;5075252;28;20200;-46
2023/03/16 01:48:57;;;;;;;2.47;1.23;;;16.30;54.60;;;;;;5109563;28;20261;-47
2023/03/16 01:52:03;;;;;;;1.77;1.20;;;16.30;54.70;;;;;;5101337;28;20226;-47
2023/03/16 01:54:50;;;;;;;2.50;1.63;;;16.30;54.60;;;;;;5046242;28;20669;-46
2023/03/16 01:57:32;;;;;;;1.93;1.30;;;16.30;54.60;;;;;;5073346;28;20201;-46
2023/03/16 02:00:30;;;;;;;1.40;1.10;;;16.30;54.60;;;;;;5093475;28;20610;-47
2023/03/16 02:03:06;;;;;;;2.17;1.30;;;16.30;55.20;;;;;;5080923;28;20212;-46
2023/03/16 02:05:44;;;;;;;1.70;1.10;;;16.30;54.60;;;;;;5086059;28;20268;-46
2023/03/16 02:08:12;;;;;;;1.67;1.17;;;16.30;54.50;;;;;;5103754;28;20188;-46
2023/03/16 02:10:53;;;;;;;1.80;1.20;;;16.20;54.50;;;;;;5108638;28;20200;-46
2023/03/16 02:13:28;;;;;;;2.57;1.20;;;16.30;54.50;;;;;;5089819;28;20200;-46
2023/03/16 02:16:03;;;;;;;2.03;1.10;;;16.30;54.60;;;;;;5090644;28;20208;-46
2023/03/16 02:18:36;;;;;;;2.63;1.43;;;16.30;54.60;;;;;;5108599;28;20199;-46
2023/03/16 02:21:42;;;;;;;1.70;1.60;;;16.30;54.60;;;;;;5081004;28;20220;-46
2023/03/16 02:24:17;;;;;;;3.03;1.47;;;16.20;54.40;;;;;;5096714;28;20272;-46
2023/03/16 02:27:12;;;;;;;2.23;1.43;;;16.30;54.60;;;;;;5103047;28;20203;-46
2023/03/16 02:30:18;;;;;;;2.00;1.10;;;16.20;54.50;;;;;;5094443;28;20297;-46
2023/03/16 02:32:50;;;;;;;2.40;1.27;;;16.20;54.50;;;;;;5075624;28;20196;-46
2023/03/16 02:35:20;;;;;;;1.40;1.30;;;16.20;54.60;;;;;;5093387;28;20870;-46
2023/03/16 02:37:48;;;;;;;2.53;1.50;;;16.20;54.50;;;;;;5088724;28;20262;-46
2023/03/16 02:40:25;;;;;;;1.40;1.30;;;16.20;54.50;;;;;;5105968;28;20201;-46
2023/03/16 02:43:13;;;;;;;1.87;1.00;;;16.20;54.50;;;;;;5095505;28;20220;-46
2023/03/16 02:45:55;;;;;;;2.53;1.60;;;16.20;54.40;;;;;;5097694;28;20462;-46
2023/03/16 02:48:57;;;;;;;1.37;1.10;;;16.20;54.50;;;;;;5080757;28;20863;-46
2023/03/16 02:51:28;;;;;;;0.93;0.93;;;16.20;54.50;;;;;;5104985;28;20200;-46
2023/03/16 02:54:05;;;;;;;2.30;1.40;;;16.20;54.50;;;;;;5104207;28;20545;-46
2023/03/16 02:56:37;;;;;;;1.47;1.10;;;16.20;54.50;;;;;;5095153;28;20212;-46
2023/03/16 02:59:11;;;;;;;2.00;1.30;;;16.20;54.50;;;;;;5103193;28;20622;-46
2023/03/16 03:01:42;;;;;;;1.13;1.03;;;16.20;54.50;;;;;;5100787;28;20211;-46
2023/03/16 03:04:12;;;;;;;2.27;1.20;;;16.20;54.50;;;;;;5105288;28;21235;-46
2023/03/16 03:06:40;;;;;;;1.10;1.00;;;16.20;54.60;;;;;;5089798;28;20212;-46
2023/03/16 03:09:10;;;;;;;1.90;1.10;;;16.20;54.50;;;;;;5094249;28;20206;-46
2023/03/16 03:11:40;;;;;;;1.10;1.00;;;16.20;54.50;;;;;;5105545;28;20196;-46
2023/03/16 03:14:15;;;;;;;2.47;1.10;;;16.20;54.50;;;;;;5079725;28;20208;-46
2023/03/16 03:16:45;;;;;;;2.03;1.27;;;16.20;54.50;;;;;;5106068;28;20554;-46
2023/03/16 03:19:14;;;;;;;1.50;1.20;;;16.20;54.50;;;;;;5098091;28;20258;-46
2023/03/16 03:21:45;;;;;;;1.57;1.33;;;16.20;54.60;;;;;;5097026;28;20216;-46
2023/03/16 03:24:15;;;;;;;1.37;1.23;;;16.20;54.60;;;;;;5078162;28;20641;-46
2023/03/16 03:26:44;;;;;;;3.40;0.90;;;16.20;54.60;;;;;;5102766;28;20189;-46
2023/03/16 03:29:14;;;;;;;1.67;1.20;;;16.20;54.60;;;;;;5097006;28;20202;-46
2023/03/16 03:31:44;;;;;;;1.10;1.00;;;16.20;54.60;;;;;;5102203;28;20199;-46
2023/03/16 03:34:14;;;;;;;1.20;0.70;;;16.20;54.60;;;;;;5088863;28;20200;-46
2023/03/16 03:36:45;;;;;;;1.73;1.13;;;16.20;54.70;;;;;;5108344;28;20231;-46
2023/03/16 03:39:22;;;;;;;1.47;1.00;;;16.10;54.70;;;;;;5101080;28;20245;-46
2023/03/16 03:41:53;;;;;;;1.33;0.90;;;16.20;54.80;;;;;;5102911;28;20289;-46
2023/03/16 03:44:23;;;;;;;1.60;1.20;;;16.20;54.70;;;;;;5083244;28;20199;-46
2023/03/16 03:46:55;;;;;;;1.57;1.00;;;16.20;54.80;;;;;;5088875;28;20211;-46
2023/03/16 03:49:26;;;;;;;1.47;1.03;;;16.20;54.70;;;;;;5102866;28;20185;-46
2023/03/16 03:51:55;;;;;;;2.03;1.10;;;16.10;54.70;;;;;;5087960;28;20215;-46
2023/03/16 03:54:30;;;;;;;1.20;0.80;;;16.10;54.70;;;;;;5087225;28;20402;-46
2023/03/16 03:57:02;;;;;;;1.10;0.87;;;16.10;54.70;;;;;;5091029;28;20204;-46
2023/03/16 03:59:41;;;;;;;1.47;1.13;;;16.10;54.70;;;;;;5103356;28;20249;-46
2023/03/16 04:02:12;;;;;;;1.10;0.90;;;16.10;54.70;;;;;;5083706;28;20245;-46
2023/03/16 04:04:43;;;;;;;1.67;1.00;;;16.10;54.80;;;;;;5068478;28;20201;-45
2023/03/16 04:07:15;;;;;;;2.83;1.00;;;16.10;54.70;;;;;;5089270;28;20209;-46
2023/03/16 04:09:44;;;;;;;1.23;1.00;;;16.10;54.60;;;;;;5100711;28;20689;-46
2023/03/16 04:12:14;;;;;;;2.13;0.73;;;16.10;54.70;;;;;;5107571;28;20193;-46
2023/03/16 04:14:47;;;;;;;1.53;0.83;;;16.10;54.70;;;;;;5089578;28;20188;-46
2023/03/16 04:17:18;;;;;;;1.37;0.90;;;16.10;54.70;;;;;;5105381;28;20661;-46
2023/03/16 04:19:50;;;;;;;2.23;1.27;;;16.10;54.60;;;;;;5096645;28;20713;-46
2023/03/16 04:22:22;;;;;;;1.63;0.80;;;16.10;54.70;;;;;;5103334;28;20261;-46
2023/03/16 04:24:58;;;;;;;1.13;0.70;;;16.10;54.70;;;;;;5106211;28;20207;-46
2023/03/16 04:27:35;;;;;;;0.93;0.83;;;16.10;54.70;;;;;;5106765;28;20544;-46
2023/03/16 04:30:22;;;;;;;1.80;0.90;;;16.10;54.70;;;;;;5089983;28;20643;-46
2023/03/16 04:32:52;;;;;;;0.73;0.70;;;16.10;54.70;;;;;;5080097;28;20603;-46
2023/03/16 04:35:22;;;;;;;1.07;0.70;;;16.10;54.70;;;;;;5104830;28;20207;-46
2023/03/16 04:37:50;;;;;;;1.83;1.00;;;16.10;54.70;;;;;;5111063;28;20212;-46
2023/03/16 04:40:22;;;;;;;3.03;1.00;;;16.10;54.80;;;;;;5082995;28;20715;-46
2023/03/16 04:42:51;;;;;;;1.27;0.80;;;16.10;54.70;;;;;;5108966;28;20228;-46
2023/03/16 04:45:22;;;;;;;1.63;0.90;;;16.10;54.60;;;;;;5110368;28;20181;-46
2023/03/16 04:47:50;;;;;;;1.20;0.90;;;16.10;54.70;;;;;;5112404;28;20316;-46
2023/03/16 04:50:21;;;;;;;2.83;1.30;;;16.10;54.70;;;;;;5106070;28;20200;-46
2023/03/16 04:52:54;;;;;;;1.70;1.10;;;16.10;54.60;;;;;;5076630;28;20228;-46
2023/03/16 04:55:22;;;;;;;1.30;0.90;;;16.10;54.70;;;;;;5107157;28;20329;-46
2023/03/16 04:57:56;;;;;;;1.17;1.00;;;16.10;54.60;;;;;;5110349;28;20204;-46
2023/03/16 05:00:29;;;;;;;1.60;0.80;;;16.10;54.70;;;;;;5110661;28;20616;-46
2023/03/16 05:03:02;;;;;;;1.00;0.80;;;16.10;54.60;;;;;;5099752;28;20876;-46
2023/03/16 05:05:34;;;;;;;1.00;0.90;;;16.10;54.60;;;;;;5105213;28;20219;-46
2023/03/16 05:08:05;;;;;;;1.00;0.90;;;16.10;54.70;;;;;;5110607;28;20727;-46
2023/03/16 05:10:35;;;;;;;2.30;0.90;;;16.00;54.60;;;;;;5095336;28;20184;-45
2023/03/16 05:13:05;;;;;;;1.20;0.80;;;16.10;54.60;;;;;;5111120;28;20797;-46
2023/03/16 05:15:35;;;;;;;0.70;0.70;;;16.10;54.60;;;;;;5094322;28;20216;-47
2023/03/16 05:18:06;;;;;;;0.70;0.70;;;16.10;54.60;;;;;;5109957;28;20193;-46
2023/03/16 05:20:35;;;;;;;1.33;0.90;;;16.10;54.70;;;;;;5099613;28;20728;-46
2023/03/16 05:23:07;;;;;;;1.27;1.10;;;16.00;54.50;;;;;;5110495;28;20603;-46
2023/03/16 05:25:50;;;;;;;1.23;1.00;;;16.10;54.60;;;;;;5107738;28;20243;-46
2023/03/16 05:28:25;;;;;;;1.23;0.97;;;16.10;54.60;;;;;;5079077;28;20215;-46
2023/03/16 05:30:55;;;;;;;0.83;0.70;;;16.10;54.60;;;;;;5101887;28;20203;-46
2023/03/16 05:33:26;;;;;;;2.03;1.10;;;16.10;54.60;;;;;;5105740;28;20184;-46
2023/03/16 05:36:01;;;;;;;1.10;0.83;;;16.10;54.60;;;;;;5110335;28;20644;-46
2023/03/16 05:38:31;;;;;;;0.83;0.73;;;16.00;54.60;;;;;;5106973;28;20569;-46
2023/03/16 05:41:04;;;;;;;1.37;0.70;;;16.00;54.60;;;;;;5086496;28;20217;-46
2023/03/16 05:43:39;;;;;;;0.73;0.70;;;16.00;54.60;;;;;;5105607;28;20210;-46
2023/03/16 05:46:08;;;;;;;0.83;0.83;;;16.00;54.60;;;;;;5109398;28;20211;-46
2023/03/16 05:48:42;;;;;;;1.10;1.00;;;16.00;55.20;;;;;;5109195;28;20230;-46
2023/03/16 05:51:13;;;;;;;1.40;1.00;;;16.00;54.60;;;;;;5100501;28;20189;-46
2023/03/16 05:53:40;;;;;;;1.20;0.77;;;16.00;54.50;;;;;;5104991;28;20570;-46
2023/03/16 05:56:11;;;;;;;2.70;0.87;;;16.00;54.50;;;;;;5109718;28;20184;-46
2023/03/16 05:58:41;;;;;;;1.10;1.00;;;16.00;54.50;;;;;;5110128;28;20572;-46
2023/03/16 06:01:14;;;;;;;2.37;1.10;;;16.00;54.50;;;;;;5094376;28;20192;-46
2023/03/16 06:03:47;;;;;;;1.77;0.90;;;16.00;54.40;;;;;;5098260;28;20732;-46
2023/03/16 06:06:16;;;;;;;1.40;0.90;;;16.00;54.40;;;;;;5090724;28;20193;-46
2023/03/16 06:08:47;;;;;;;2.27;1.00;;;16.00;54.40;;;;;;5092509;28;20620;-46
2023/03/16 06:11:19;;;;;;;1.23;1.03;;;16.00;54.40;;;;;;5079547;28;20185;-46
2023/03/16 06:13:50;;;;;;;1.53;0.83;;;16.00;54.50;;;;;;5104478;28;20203;-46
2023/03/16 06:16:22;;;;;;;1.80;1.17;;;16.00;54.40;;;;;;5106875;28;20235;-46
2023/03/16 06:18:52;;;;;;;3.13;1.07;;;16.00;54.40;;;;;;5110429;28;20197;-46
2023/03/16 06:21:27;;;;;;;2.07;1.20;;;16.00;54.60;;;;;;5107582;28;20261;-46
2023/03/16 06:23:56;;;;;;;1.30;0.90;;;16.00;54.80;;;;;;5097549;28;20192;-46
2023/03/16 06:26:27;;;;;;;1.17;1.03;;;16.00;54.80;;;;;;5110394;28;20192;-46
2023/03/16 06:28:59;;;;;;;1.67;1.13;;;16.00;54.70;;;;;;5079882;28;20235;-46
2023/03/16 06:31:32;;;;;;;1.20;0.90;;;16.00;54.80;;;;;;5104698;28;20247;-46
2023/03/16 06:34:02;;;;;;;2.53;1.10;;;16.00;54.70;;;;;;5077213;28;20209;-46
2023/03/16 06:36:33;;;;;;;1.90;1.30;;;16.00;54.70;;;;;;5105942;28;20220;-46
2023/03/16 06:39:04;;;;;;;2.83;1.00;;;16.00;54.60;;;;;;5106120;28;20204;-46
2023/03/16 06:41:36;;;;;;;2.70;1.30;;;16.00;54.40;;;;;;5102906;28;20212;-46
2023/03/16 06:44:07;;;;;;;4.07;1.03;;;16.00;54.40;;;;;;5102593;28;20200;-46
2023/03/16 06:46:51;;;;;;;1.63;1.30;;;16.00;54.20;;;;;;5102953;28;20204;-46
2023/03/16 06:49:20;;;;;;;2.00;1.37;;;16.00;54.10;;;;;;5108810;28;20192;-46
2023/03/16 06:51:50;;;;;;;2.70;1.67;;;16.00;54.10;;;;;;5104928;28;20584;-46
2023/03/16 06:54:21;;;;;;;3.13;1.57;;;16.00;54.10;;;;;;5110501;28;20203;-46
2023/03/16 06:56:51;;;;;;;3.53;1.33;;;16.00;54.00;;;;;;5112406;28;20210;-46
2023/03/16 06:59:23;;;;;;;30.80;5.10;;;16.00;54.10;;;;;;5111887;28;20188;-46
2023/03/16 07:01:50;;;;;;;25.00;6.03;;;16.00;54.10;;;;;;5091776;28;20209;-46
2023/03/16 07:04:25;;;;;;;27.03;6.37;;;16.00;54.40;;;;;;5104927;28;20200;-46
2023/03/16 07:07:01;;;;;;;18.43;5.70;;;16.00;54.40;;;;;;5105131;28;20195;-46
2023/03/16 07:09:33;;;;;;;15.03;5.23;;;16.00;54.20;;;;;;5106008;28;20196;-46
2023/03/16 07:12:07;;;;;;;19.63;5.20;;;16.00;54.20;;;;;;5087162;28;20208;-46
2023/03/16 07:14:38;;;;;;;17.33;5.50;;;16.00;54.70;;;;;;5083466;28;20242;-46
2023/03/16 07:17:08;;;;;;;20.50;4.93;;;16.00;54.80;;;;;;5106174;28;20212;-46
2023/03/16 07:19:38;;;;;;;13.07;4.97;;;15.90;54.80;;;;;;5105401;28;20239;-46
2023/03/16 07:22:07;;;;;;;13.17;4.67;;;16.00;55.60;;;;;;5106699;28;20283;-45
2023/03/16 07:24:37;;;;;;;12.07;4.40;;;16.00;57.00;;;;;;5100148;28;20196;-46
2023/03/16 07:27:07;;;;;;;14.43;4.40;;;16.00;56.80;;;;;;5098448;28;20192;-46
2023/03/16 07:29:39;;;;;;;9.70;3.83;;;16.00;56.10;;;;;;5082565;28;20205;-46
2023/03/16 07:32:10;;;;;;;7.53;3.67;;;16.00;55.60;;;;;;5092383;28;20208;-46
2023/03/16 07:34:40;;;;;;;12.50;3.87;;;16.00;55.20;;;;;;5103631;28;20206;-46
2023/03/16 07:37:11;;;;;;;16.10;4.20;;;16.00;54.80;;;;;;5089096;28;20250;-46
2023/03/16 07:39:41;;;;;;;8.47;2.97;;;16.00;54.50;;;;;;5099458;28;20192;-46
2023/03/16 07:42:13;;;;;;;9.73;3.57;;;16.00;54.40;;;;;;5092882;28;20238;-46
2023/03/16 07:44:45;;;;;;;7.13;3.30;;;16.00;54.20;;;;;;5082152;28;20185;-46
2023/03/16 07:47:17;;;;;;;8.07;2.73;;;16.00;53.90;;;;;;5084454;28;20201;-46
2023/03/16 07:50:00;;;;;;;7.00;2.53;;;16.00;53.80;;;;;;5087308;28;20577;-46
2023/03/16 07:52:30;;;;;;;6.07;2.13;;;16.00;53.80;;;;;;5100115;28;20562;-46
2023/03/16 07:54:59;;;;;;;4.87;2.20;;;16.00;53.70;;;;;;5104324;28;20573;-46
2023/03/16 07:57:28;;;;;;;4.80;2.23;;;16.00;53.60;;;;;;5074446;28;20470;-46
2023/03/16 07:59:59;;;;;;;6.00;2.23;;;16.00;53.60;;;;;;5079625;28;20250;-46
2023/03/16 08:02:30;;;;;;;4.13;2.27;;;16.00;53.70;;;;;;5107308;28;20205;-45
2023/03/16 08:05:02;;;;;;;5.93;2.27;;;16.00;53.60;;;;;;5099012;28;20213;-46
2023/03/16 08:07:34;;;;;;;3.67;2.43;;;16.00;53.50;;;;;;5090273;28;20225;-46
2023/03/16 08:10:05;;;;;;;9.53;2.30;;;16.00;53.60;;;;;;5088534;28;20196;-46
2023/03/16 08:12:51;;;;;;;2.87;1.90;;;16.00;53.50;;;;;;5102892;28;20232;-46
2023/03/16 08:15:34;;;;;;;2.83;1.60;;;16.00;53.50;;;;;;5104212;28;20639;-46
2023/03/16 08:18:07;;;;;;;5.90;2.30;;;16.00;53.50;;;;;;5109566;28;20199;-46
2023/03/16 08:20:40;;;;;;;3.47;2.17;;;16.00;53.40;;;;;;5071485;28;20240;-46
2023/03/16 08:23:12;;;;;;;3.20;1.97;;;16.00;53.40;;;;;;5079719;28;20225;-46
2023/03/16 08:25:43;;;;;;;3.13;1.50;;;16.00;53.40;;;;;;5082055;28;20192;-46
2023/03/16 08:28:14;;;;;;;2.90;1.77;;;16.00;53.20;;;;;;5067837;28;20217;-46
2023/03/16 08:30:51;;;;;;;3.83;1.67;;;16.00;53.30;;;;;;5063054;28;20197;-46
2023/03/16 08:33:22;;;;;;;2.53;1.60;;;16.00;53.10;;;;;;5066875;28;20672;-46
2023/03/16 08:35:53;;;;;;;2.63;1.67;;;16.00;53.30;;;;;;5083972;28;20642;-46
2023/03/16 08:38:38;;;;;;;2.00;1.53;;;16.00;53.10;;;;;;5084053;28;20224;-46
2023/03/16 08:41:11;;;;;;;1.73;1.50;;;16.00;53.10;;;;;;5078457;28;20209;-46
2023/03/16 08:43:41;;;;;;;1.90;1.53;;;16.10;53.10;;;;;;5059493;28;20201;-46
2023/03/16 08:46:10;;;;;;;3.40;1.43;;;16.10;53.10;;;;;;5079272;28;20209;-46
2023/03/16 08:48:43;;;;;;;2.57;1.70;;;16.00;52.90;;;;;;5070625;28;20255;-46
2023/03/16 08:51:18;;;;;;;2.73;1.67;;;16.00;53.00;;;;;;5085568;28;20189;-46
2023/03/16 08:53:48;;;;;;;3.57;1.80;;;16.00;53.10;;;;;;5067095;28;20826;-46
2023/03/16 08:56:22;;;;;;;3.57;1.50;;;16.00;53.10;;;;;;5082586;28;20661;-46
2023/03/16 08:58:53;;;;;;;2.73;1.53;;;16.00;53.00;;;;;;5078142;28;20216;-46
2023/03/16 09:01:24;;;;;;;3.20;1.20;;;16.10;53.10;;;;;;5075800;28;20731;-46
2023/03/16 09:03:55;;;;;;;3.47;1.63;;;16.00;52.90;;;;;;5087033;28;20258;-46
2023/03/16 09:06:26;;;;;;;2.43;1.50;;;16.10;52.90;;;;;;5076771;28;20212;-46
2023/03/16 09:09:00;;;;;;;3.83;1.30;;;16.10;52.80;;;;;;5084957;28;20205;-46
2023/03/16 09:11:35;;;;;;;4.00;1.80;;;16.10;52.80;;;;;;5082181;28;20196;-46
2023/03/16 09:14:07;;;;;;;1.30;1.10;;;16.10;52.80;;;;;;5085714;28;20208;-46
2023/03/16 09:16:53;;;;;;;2.50;1.60;;;16.10;52.70;;;;;;5084967;28;20291;-46
2023/03/16 09:19:26;;;;;;;2.50;1.37;;;16.10;52.80;;;;;;5088464;28;20236;-46
2023/03/16 09:22:18;;;;;;;5.40;1.40;;;16.10;52.70;;;;;;5104495;27;20228;-46
2023/03/16 09:24:48;;;;;;;4.90;1.37;;;16.10;53.10;;;;;;5094024;28;20189;-46
2023/03/16 09:27:19;;;;;;;2.57;1.60;;;16.10;53.60;;;;;;5110383;28;20233;-46
2023/03/16 09:29:49;;;;;;;5.53;1.70;;;16.10;54.00;;;;;;5087240;28;20223;-46
2023/03/16 09:32:22;;;;;;;2.30;1.20;;;16.10;53.90;;;;;;5091825;28;20189;-46
2023/03/16 09:34:53;;;;;;;2.00;1.33;;;16.10;54.00;;;;;;5110875;28;20530;-46
2023/03/16 09:37:36;;;;;;;3.33;1.27;;;16.10;54.20;;;;;;5105113;28;20200;-45
2023/03/16 09:40:27;;;;;;;2.40;1.37;;;16.10;54.40;;;;;;5101226;28;20232;-46
2023/03/16 09:43:26;;;;;;;2.03;1.13;;;16.10;54.70;;;;;;5086983;28;20199;-46
2023/03/16 09:46:21;;;;;;;1.87;1.30;;;16.10;55.10;;;;;;5086360;28;20200;-46
2023/03/16 09:48:55;;;;;;;4.30;1.47;;;16.10;55.20;;;;;;5089550;27;20637;-46
2023/03/16 09:52:14;;;;;;;2.50;1.20;;;16.10;54.80;;;;;;5083066;28;20705;-46
2023/03/16 09:55:21;;;;;;;3.57;2.00;;;16.10;55.20;;;;;;5102061;28;20208;-46
2023/03/16 09:58:16;;;;;;;2.57;1.27;;;16.10;55.20;;;;;;5104106;28;20283;-46
2023/03/16 10:01:13;;;;;;;1.93;1.33;;;16.10;55.30;;;;;;5098724;28;20188;-46
2023/03/16 10:04:08;;;;;;;3.07;1.40;;;16.20;55.50;;;;;;5072696;28;20234;-46
2023/03/16 10:06:53;;;;;;;2.47;1.40;;;16.10;55.50;;;;;;5092582;28;20232;-46
2023/03/16 10:09:39;;;;;;;1.43;0.93;;;16.10;55.50;;;;;;5104231;28;20205;-46
2023/03/16 10:12:14;;;;;;;2.10;1.33;;;16.20;55.70;;;;;;5087384;28;20197;-46
2023/03/16 10:15:08;;;;;;;1.57;1.13;;;16.20;55.50;;;;;;5094207;28;20692;-46
2023/03/16 10:18:12;;;;;;;1.70;1.30;;;16.20;55.40;;;;;;5069408;28;20201;-45
2023/03/16 10:20:48;;;;;;;1.50;1.20;;;16.20;55.40;;;;;;5087515;28;20235;-46
2023/03/16 10:23:25;;;;;;;2.00;0.87;;;16.20;55.70;;;;;;5092173;28;20239;-46
2023/03/16 10:26:17;;;;;;;1.90;1.40;;;16.20;55.50;;;;;;5102592;28;20199;-46
2023/03/16 10:28:46;;;;;;;2.33;1.00;;;16.20;55.70;;;;;;5095623;28;20623;-47
2023/03/16 10:31:17;;;;;;;2.47;1.20;;;16.20;55.80;;;;;;5106717;28;20208;-46
2023/03/16 10:33:54;;;;;;;2.43;1.50;;;16.20;56.00;;;;;;5069043;28;20268;-46
2023/03/16 10:36:38;;;;;;;2.70;1.20;;;16.20;56.40;;;;;;5090644;28;20288;-46
2023/03/16 10:39:12;;;;;;;3.00;1.20;;;16.20;55.90;;;;;;5101341;27;20200;-46
2023/03/16 10:41:45;;;;;;;2.27;1.20;;;16.20;56.10;;;;;;5082928;28;20208;-46
2023/03/16 10:44:28;;;;;;;3.13;0.93;;;16.30;55.90;;;;;;5067551;28;20607;-46
2023/03/16 10:47:30;;;;;;;3.07;1.70;;;16.30;56.20;;;;;;5096128;28;20189;-46
2023/03/16 10:50:15;;;;;;;1.10;1.00;;;16.30;56.00;;;;;;5071926;28;20232;-46
2023/03/16 10:52:57;;;;;;;4.33;1.20;;;16.30;56.20;;;;;;5081107;28;20648;-46
2023/03/16 10:55:41;;;;;;;2.27;1.20;;;16.30;56.30;;;;;;5095955;28;20200;-46
2023/03/16 10:58:21;;;;;;;1.23;1.10;;;16.30;56.40;;;;;;5082829;28;20192;-46
2023/03/16 11:00:54;;;;;;;1.87;1.10;;;16.30;56.40;;;;;;5089074;28;20621;-46
2023/03/16 11:03:40;;;;;;;2.43;1.33;;;16.30;56.10;;;;;;5104245;27;20230;-46
2023/03/16 11:06:29;;;;;;;2.20;1.30;;;16.30;55.70;;;;;;5095025;28;20189;-46
2023/03/16 11:09:18;;;;;;;1.70;1.53;;;16.40;55.10;;;;;;5080855;28;20209;-46
2023/03/16 11:11:50;;;;;;;3.97;1.13;;;16.40;55.70;;;;;;5074100;28;20218;-46
2023/03/16 11:14:24;;;;;;;2.30;1.17;;;16.40;55.60;;;;;;5098396;28;20204;-46
2023/03/16 11:17:16;;;;;;;2.07;1.10;;;16.50;56.00;;;;;;5082928;28;20516;-46
2023/03/16 11:19:59;;;;;;;2.43;1.10;;;16.40;56.00;;;;;;5074907;28;20233;-47
2023/03/16 11:22:28;;;;;;;1.97;1.20;;;16.50;55.40;;;;;;5081422;28;20205;-46
2023/03/16 11:25:29;;;;;;;3.13;1.33;;;16.50;55.30;;;;;;5081339;28;20212;-46
2023/03/16 11:28:37;;;;;;;1.40;1.20;;;16.50;55.40;;;;;;5067031;28;20217;-47
2023/03/16 11:31:27;;;;;;;1.90;1.37;;;16.50;55.90;;;;;;5058629;28;20198;-46
2023/03/16 11:33:56;;;;;;;1.80;1.17;;;16.50;56.00;;;;;;5054007;28;20204;-46
2023/03/16 11:37:06;;;;;;;1.70;1.00;;;16.50;55.90;;;;;;5087255;28;20507;-46
2023/03/16 11:39:53;;;;;;;2.33;1.27;;;16.50;55.90;;;;;;5043307;28;20228;-46
2023/03/16 11:42:50;;;;;;;1.97;1.23;;;16.50;55.80;;;;;;5087614;28;20189;-46
2023/03/16 11:46:21;;;;;;;1.80;1.13;;;16.50;56.50;;;;;;5088924;28;20569;-46
2023/03/16 11:49:29;;;;;;;2.00;1.10;;;16.60;55.80;;;;;;5020773;28;20217;-47
2023/03/16 11:52:22;;;;;;;2.07;1.00;;;16.60;55.70;;;;;;5072956;28;20258;-46
2023/03/16 11:55:17;;;;;;;1.60;1.20;;;16.60;55.20;;;;;;5082155;28;20185;-46
2023/03/16 11:58:32;;;;;;;2.40;1.10;;;16.60;55.10;;;;;;5065520;28;20248;-46
2023/03/16 12:01:43;;;;;;;1.33;1.10;;;16.60;56.10;;;;;;5081640;28;20278;-46
2023/03/16 12:04:56;;;;;;;1.70;1.00;;;16.60;55.90;;;;;;5072432;28;20252;-46
2023/03/16 12:07:47;;;;;;;1.73;1.07;;;16.70;55.10;;;;;;5073944;28;20583;-46
2023/03/16 12:10:42;;;;;;;1.83;0.90;;;16.60;55.50;;;;;;5084154;28;20631;-46
2023/03/16 12:13:56;;;;;;;1.63;0.80;;;16.70;55.40;;;;;;5066250;28;20197;-46
2023/03/16 12:16:56;;;;;;;2.57;1.40;;;16.70;55.90;;;;;;5076265;28;20273;-46
2023/03/16 12:19:55;;;;;;;2.03;0.90;;;16.70;55.10;;;;;;5070917;28;20238;-46
2023/03/16 12:22:40;;;;;;;1.43;0.80;;;16.70;55.40;;;;;;5102182;28;20657;-47
2023/03/16 12:25:24;;;;;;;1.20;1.00;;;16.70;55.60;;;;;;5088785;28;20810;-46
2023/03/16 12:28:14;;;;;;;2.60;1.00;;;16.70;55.50;;;;;;5090715;28;20719;-46
2023/03/16 12:31:10;;;;;;;2.20;1.10;;;16.70;55.10;;;;;;5091052;28;20221;-46
2023/03/16 12:34:18;;;;;;;1.53;0.93;;;16.70;55.50;;;;;;5102047;28;20297;-46
2023/03/16 12:37:35;;;;;;;2.83;1.10;;;16.80;55.50;;;;;;5075466;28;20227;-46
2023/03/16 12:40:29;;;;;;;1.73;0.90;;;16.70;55.60;;;;;;5060597;28;20209;-46
2023/03/16 12:43:22;;;;;;;3.00;1.00;;;16.80;56.00;;;;;;5109632;28;20216;-46
2023/03/16 12:46:13;;;;;;;1.17;0.90;;;16.80;55.60;;;;;;5099301;28;20272;-46
2023/03/16 12:48:51;;;;;;;1.63;1.00;;;16.80;55.80;;;;;;5087186;28;20196;-46
2023/03/16 12:51:30;;;;;;;1.90;0.90;;;16.80;56.00;;;;;;5089877;28;20192;-46
2023/03/16 12:54:01;;;;;;;1.10;0.80;;;16.80;56.20;;;;;;5111941;28;20631;-46
2023/03/16 12:56:47;;;;;;;1.33;0.70;;;16.80;55.90;;;;;;5108054;28;20234;-46
2023/03/16 12:59:20;;;;;;;3.60;1.10;;;16.80;56.00;;;;;;5106486;28;20220;-46
2023/03/16 13:01:59;;;;;;;3.40;1.10;;;16.80;55.50;;;;;;5070547;28;20597;-46
2023/03/16 13:04:40;;;;;;;2.10;0.87;;;16.90;55.50;;;;;;5086606;28;20275;-46
2023/03/16 13:07:17;;;;;;;2.13;0.93;;;16.90;56.00;;;;;;5093130;28;20202;-47
2023/03/16 13:09:57;;;;;;;2.00;1.07;;;16.90;56.40;;;;;;5103049;27;20203;-46
2023/03/16 13:12:40;;;;;;;1.20;0.80;;;16.80;55.60;;;;;;5080395;28;20203;-46
2023/03/16 13:15:28;;;;;;;1.60;0.80;;;16.90;56.30;;;;;;5103908;28;20303;-46
2023/03/16 13:18:09;;;;;;;1.10;0.77;;;16.90;56.10;;;;;;5106954;28;20245;-46
2023/03/16 13:20:57;;;;;;;1.40;0.90;;;16.90;56.00;;;;;;5096214;28;20252;-46
2023/03/16 13:23:56;;;;;;;1.83;0.67;;;16.90;56.00;;;;;;5062039;28;20242;-46
2023/03/16 13:26:42;;;;;;;1.03;0.70;;;16.90;56.30;;;;;;5067471;28;20185;-46
2023/03/16 13:29:26;;;;;;;1.07;0.70;;;16.90;56.20;;;;;;5086401;28;20185;-46
2023/03/16 13:31:59;;;;;;;1.00;0.60;;;17.00;56.20;;;;;;5082015;28;20197;-46
2023/03/16 13:34:36;;;;;;;1.53;0.70;;;17.00;56.10;;;;;;5077860;28;20626;-46
2023/03/16 13:37:13;;;;;;;1.70;0.90;;;17.00;56.20;;;;;;5054945;28;20204;-46
2023/03/16 13:40:00;;;;;;;1.30;0.77;;;17.00;56.10;;;;;;5065152;28;20645;-46